createdAt,value
2017-09-04T00:00:30.076Z,85.3
2017-09-04T00:01:29.524Z,85.4
2017-09-04T00:02:28.588Z,85.1
2017-09-04T00:03:27.899Z,85.4
2017-09-04T00:05:26.104Z,85.8
2017-09-04T00:06:25.416Z,85.8
2017-09-04T00:07:24.722Z,85.6
2017-09-04T00:08:23.656Z,85.6
2017-09-04T00:10:22.116Z,85.9
2017-09-04T00:11:21.418Z,86
2017-09-04T00:12:20.354Z,86
2017-09-04T00:14:19.187Z,86.2
2017-09-04T00:16:17.397Z,87.3
2017-09-04T00:17:16.213Z,87.6
2017-09-04T00:18:15.645Z,87.4
2017-09-04T00:19:14.835Z,87.5
2017-09-04T00:20:14.140Z,88.1
2017-09-04T00:20:44.401Z,88.1
2017-09-04T00:21:14.899Z,87.8
2017-09-04T00:21:45.282Z,87.8
2017-09-04T00:22:15.534Z,87.9
2017-09-04T00:22:46.282Z,87.9
2017-09-04T00:24:10.624Z,87.3
2017-09-04T00:25:09.813Z,87.5
2017-09-04T00:26:09.129Z,87.2
2017-09-04T00:27:08.063Z,87.1
2017-09-04T00:28:07.498Z,87.1
2017-09-04T00:29:06.434Z,87.8
2017-09-04T00:30:05.629Z,88
2017-09-04T00:31:05.075Z,87.5
2017-09-04T00:32:04.136Z,87.3
2017-09-04T00:33:03.328Z,87.7
2017-09-04T00:34:02.893Z,87.3
2017-09-04T00:35:01.701Z,87.3
2017-09-04T00:36:01.029Z,87.4
2017-09-04T00:37:00.098Z,87.1
2017-09-04T00:37:59.539Z,87.4
2017-09-04T00:39:57.615Z,87.5
2017-09-04T00:40:56.684Z,87.2
2017-09-04T00:41:56.365Z,87.2
2017-09-04T00:42:55.175Z,86.9
2017-09-04T00:43:54.612Z,86.8
2017-09-04T00:44:53.544Z,86.8
2017-09-04T00:45:53.034Z,86.6
2017-09-04T00:46:51.859Z,86.5
2017-09-04T00:47:51.175Z,86.6
2017-09-04T00:48:50.357Z,86.7
2017-09-04T00:49:49.415Z,86.5
2017-09-04T00:50:48.976Z,86.7
2017-09-04T00:51:47.901Z,86.7
2017-09-04T00:52:18.265Z,86.7
2017-09-04T00:52:48.770Z,86.9
2017-09-04T00:53:46.450Z,87.1
2017-09-04T00:54:45.421Z,86.9
2017-09-04T00:56:43.999Z,87.3
2017-09-04T00:57:43.314Z,87.2
2017-09-04T00:58:42.242Z,87.4
2017-09-04T00:59:41.436Z,87.5
2017-09-04T01:00:40.620Z,87.5
2017-09-04T01:01:39.809Z,87.2
2017-09-04T01:02:38.746Z,87.4
2017-09-04T01:03:38.318Z,87.2
2017-09-04T01:05:36.413Z,87.4
2017-09-04T01:06:35.743Z,87.5
2017-09-04T01:07:34.680Z,87.9
2017-09-04T01:09:33.383Z,88.1
2017-09-04T01:10:32.570Z,88.4
2017-09-04T01:11:31.630Z,88.7
2017-09-04T01:12:30.928Z,88.8
2017-09-04T01:13:30.255Z,89.2
2017-09-04T01:14:29.077Z,89.1
2017-09-04T01:15:28.158Z,89.2
2017-09-04T01:16:27.341Z,88.9
2017-09-04T01:18:26.167Z,89
2017-09-04T01:19:24.979Z,88.7
2017-09-04T01:20:24.053Z,88.7
2017-09-04T01:21:23.360Z,88.7
2017-09-04T01:22:22.684Z,88.7
2017-09-04T01:23:21.502Z,88.9
2017-09-04T01:24:21.179Z,88.7
2017-09-04T01:26:19.389Z,89
2017-09-04T01:27:18.706Z,89
2017-09-04T01:28:17.397Z,88.8
2017-09-04T01:29:16.959Z,88.9
2017-09-04T01:30:15.890Z,88.8
2017-09-04T01:31:15.199Z,88.8
2017-09-04T01:32:14.381Z,88.7
2017-09-04T01:33:13.314Z,89.4
2017-09-04T01:34:12.874Z,89.3
2017-09-04T01:35:11.807Z,89.7
2017-09-04T01:36:11.251Z,89.5
2017-09-04T01:37:10.559Z,89.4
2017-09-04T01:38:09.508Z,89.3
2017-09-04T01:39:08.819Z,89.1
2017-09-04T01:41:07.023Z,89.2
2017-09-04T01:43:05.220Z,89
2017-09-04T01:44:04.414Z,89.2
2017-09-04T01:45:03.605Z,89
2017-09-04T01:46:03.042Z,88.8
2017-09-04T01:46:33.548Z,88.8
2017-09-04T01:47:04.055Z,89
2017-09-04T01:47:34.293Z,89
2017-09-04T01:48:04.667Z,88.8
2017-09-04T01:49:00.579Z,89
2017-09-04T01:49:59.778Z,88.8
2017-09-04T01:50:58.881Z,88.9
2017-09-04T01:51:57.946Z,89
2017-09-04T01:52:56.876Z,88.9
2017-09-04T01:53:56.110Z,88.7
2017-09-04T01:54:55.428Z,88.7
2017-09-04T01:56:53.756Z,88.5
2017-09-04T01:57:53.199Z,88.9
2017-09-04T01:58:52.138Z,89.1
2017-09-04T01:59:51.457Z,88.9
2017-09-04T02:01:49.654Z,88.4
2017-09-04T02:02:48.843Z,88.4
2017-09-04T02:03:48.037Z,88.3
2017-09-04T02:04:47.348Z,88.3
2017-09-04T02:05:46.444Z,88.2
2017-09-04T02:06:45.517Z,88.4
2017-09-04T02:09:43.221Z,88.7
2017-09-04T02:10:42.406Z,89
2017-09-04T02:11:41.595Z,88.8
2017-09-04T02:12:40.788Z,89.4
2017-09-04T02:13:39.730Z,89.3
2017-09-04T02:14:39.197Z,89
2017-09-04T02:15:38.262Z,89
2017-09-04T02:16:37.458Z,88.8
2017-09-04T02:17:36.532Z,88.8
2017-09-04T02:18:36.100Z,88.8
2017-09-04T02:19:35.285Z,88.8
2017-09-04T02:20:33.970Z,88.7
2017-09-04T02:21:33.300Z,88.7
2017-09-04T02:22:32.248Z,88.7
2017-09-04T02:23:31.941Z,88.6
2017-09-04T02:25:30.130Z,88.6
2017-09-04T02:26:29.317Z,88.8
2017-09-04T02:26:59.825Z,88.8
2017-09-04T02:29:26.584Z,89.2
2017-09-04T02:30:25.762Z,89
2017-09-04T02:31:25.072Z,89.1
2017-09-04T02:33:23.390Z,89.3
2017-09-04T02:34:22.442Z,89.8
2017-09-04T02:35:21.646Z,89.5
2017-09-04T02:37:19.859Z,89.9
2017-09-04T02:37:50.606Z,89.9
2017-09-04T02:38:21.224Z,89.8
2017-09-04T02:38:51.475Z,89.8
2017-09-04T02:40:17.705Z,89.8
2017-09-04T02:41:16.877Z,89.7
2017-09-04T02:42:16.202Z,89.9
2017-09-04T02:43:15.010Z,90.4
2017-09-04T02:44:14.446Z,90.2
2017-09-04T02:45:13.255Z,90.3
2017-09-04T02:46:12.427Z,90.5
2017-09-04T02:47:11.990Z,90.2
2017-09-04T02:48:11.302Z,90.4
2017-09-04T02:49:09.976Z,90.7
2017-09-04T02:50:09.276Z,90.4
2017-09-04T02:51:08.711Z,90.1
2017-09-04T02:52:07.665Z,89.9
2017-09-04T02:53:06.890Z,90.4
2017-09-04T02:54:06.202Z,90.2
2017-09-04T02:55:05.135Z,90.1
2017-09-04T02:56:04.316Z,90.1
2017-09-04T02:57:03.507Z,90.1
2017-09-04T02:58:02.697Z,90.1
2017-09-04T02:59:01.992Z,90.3
2017-09-04T03:00:01.042Z,90
2017-09-04T03:01:00.501Z,89.9
2017-09-04T03:01:59.553Z,89.8
2017-09-04T03:02:58.728Z,89.6
2017-09-04T03:03:58.166Z,89.6
2017-09-04T03:04:56.854Z,89.5
2017-09-04T03:05:56.372Z,89.7
2017-09-04T03:06:55.563Z,89.4
2017-09-04T03:07:54.489Z,89.3
2017-09-04T03:08:53.796Z,89.3
2017-09-04T03:09:52.597Z,89.4
2017-09-04T03:10:52.280Z,89.5
2017-09-04T03:11:51.332Z,89.3
2017-09-04T03:12:50.266Z,89.2
2017-09-04T03:13:49.710Z,89.8
2017-09-04T03:14:48.635Z,89.7
2017-09-04T03:15:48.068Z,89.5
2017-09-04T03:18:45.531Z,89.6
2017-09-04T03:19:44.592Z,90
2017-09-04T03:20:43.784Z,89.6
2017-09-04T03:23:41.242Z,89.6
2017-09-04T03:25:39.676Z,89.9
2017-09-04T03:26:38.732Z,89.6
2017-09-04T03:27:38.165Z,89.7
2017-09-04T03:28:37.221Z,89.5
2017-09-04T03:29:36.528Z,89.8
2017-09-04T03:30:35.338Z,89.9
2017-09-04T03:31:34.393Z,90.2
2017-09-04T03:33:33.228Z,90.2
2017-09-04T03:34:32.416Z,89.9
2017-09-04T03:35:31.480Z,89.8
2017-09-04T03:37:29.796Z,89.4
2017-09-04T03:38:28.767Z,89.7
2017-09-04T03:39:28.205Z,89.9
2017-09-04T03:40:27.381Z,89.8
2017-09-04T03:41:26.693Z,90.1
2017-09-04T03:42:25.508Z,89.8
2017-09-04T03:43:24.562Z,89.8
2017-09-04T03:44:23.625Z,90
2017-09-04T03:45:22.928Z,90.3
2017-09-04T03:46:22.235Z,90.3
2017-09-04T03:47:21.292Z,90.4
2017-09-04T03:48:20.457Z,90.8
2017-09-04T03:49:19.999Z,90.9
2017-09-04T03:50:18.810Z,90.5
2017-09-04T03:51:17.987Z,90.2
2017-09-04T03:52:17.299Z,90.5
2017-09-04T03:53:16.364Z,90.2
2017-09-04T03:55:14.816Z,89.9
2017-09-04T03:56:13.750Z,89.9
2017-09-04T03:57:12.928Z,90
2017-09-04T03:58:12.249Z,90
2017-09-04T04:00:10.444Z,89.8
2017-09-04T04:01:09.866Z,90.2
2017-09-04T04:02:08.792Z,90.1
2017-09-04T04:05:06.386Z,90.4
2017-09-04T04:06:05.699Z,90.4
2017-09-04T04:09:03.157Z,90.2
2017-09-04T04:12:59.892Z,90.4
2017-09-04T04:13:58.828Z,90.4
2017-09-04T04:14:57.887Z,90.6
2017-09-04T04:15:57.445Z,90.8
2017-09-04T04:17:55.391Z,90.7
2017-09-04T04:18:54.571Z,90.9
2017-09-04T04:19:53.871Z,90.9
2017-09-04T04:21:51.936Z,91.1
2017-09-04T04:22:51.244Z,91.5
2017-09-04T04:24:49.455Z,91.4
2017-09-04T04:25:48.765Z,91.4
2017-09-04T04:26:48.082Z,91.3
2017-09-04T04:27:47.263Z,91.1
2017-09-04T04:28:46.459Z,91.1
2017-09-04T04:29:45.269Z,91.2
2017-09-04T04:30:44.718Z,91.1
2017-09-04T04:31:44.159Z,91.5
2017-09-04T04:32:42.955Z,91.4
2017-09-04T04:33:42.017Z,91.2
2017-09-04T04:34:41.453Z,91.3
2017-09-04T04:35:40.758Z,91.4
2017-09-04T04:36:39.815Z,91.5
2017-09-04T04:37:38.741Z,91.3
2017-09-04T04:38:38.053Z,91.1
2017-09-04T04:39:36.868Z,91.5
2017-09-04T04:40:36.051Z,91.4
2017-09-04T04:41:35.350Z,91.5
2017-09-04T04:42:34.663Z,91.4
2017-09-04T04:44:32.855Z,91.5
2017-09-04T04:45:31.849Z,91.4
2017-09-04T04:46:31.046Z,91.3
2017-09-04T04:47:30.487Z,91.5
2017-09-04T04:48:29.790Z,91.5
2017-09-04T04:49:28.717Z,91.4
2017-09-04T04:50:28.019Z,91.4
2017-09-04T04:51:26.943Z,91.3
2017-09-04T04:52:26.127Z,91.4
2017-09-04T04:53:25.564Z,91.3
2017-09-04T04:54:24.380Z,91.6
2017-09-04T04:55:23.950Z,91.5
2017-09-04T04:56:22.874Z,91.3
2017-09-04T04:57:22.054Z,91.3
2017-09-04T04:58:21.359Z,91.3
2017-09-04T04:59:20.292Z,91.4
2017-09-04T05:00:19.350Z,91.7
2017-09-04T05:01:18.910Z,91.5
2017-09-04T05:02:18.091Z,91.4
2017-09-04T05:03:17.280Z,91.3
2017-09-04T05:04:16.213Z,91.2
2017-09-04T05:05:15.272Z,91.2
2017-09-04T05:07:13.586Z,91.3
2017-09-04T05:08:12.769Z,91.1
2017-09-04T05:09:11.947Z,91
2017-09-04T05:10:11.123Z,90.9
2017-09-04T05:12:09.697Z,91
2017-09-04T05:13:08.645Z,90.7
2017-09-04T05:14:07.454Z,91.1
2017-09-04T05:16:06.020Z,91.2
2017-09-04T05:17:05.070Z,90.9
2017-09-04T05:18:04.130Z,90.6
2017-09-04T05:19:03.430Z,90.6
2017-09-04T05:20:02.858Z,91.1
2017-09-04T05:21:02.042Z,91.2
2017-09-04T05:22:01.104Z,91
2017-09-04T05:23:00.273Z,91.1
2017-09-04T05:24:58.473Z,91.1
2017-09-04T05:25:57.404Z,91.4
2017-09-04T05:26:57.086Z,91.4
2017-09-04T05:27:56.029Z,91.4
2017-09-04T05:28:55.223Z,91.1
2017-09-04T05:29:54.522Z,91
2017-09-04T05:30:53.326Z,91.5
2017-09-04T05:31:52.767Z,91.3
2017-09-04T05:32:51.744Z,91.3
2017-09-04T05:33:51.041Z,91.2
2017-09-04T05:34:50.096Z,91.2
2017-09-04T05:35:49.274Z,91.2
2017-09-04T05:36:48.333Z,91.2
2017-09-04T05:37:47.387Z,91.2
2017-09-04T05:38:46.713Z,91.2
2017-09-04T05:39:45.761Z,91
2017-09-04T05:40:44.944Z,90.9
2017-09-04T05:41:44.374Z,90.9
2017-09-04T05:42:43.293Z,91
2017-09-04T05:43:42.349Z,91.1
2017-09-04T05:44:41.404Z,90.8
2017-09-04T05:45:41.087Z,90.6
2017-09-04T05:46:40.149Z,90.5
2017-09-04T05:47:39.334Z,90.5
2017-09-04T05:48:38.636Z,90.6
2017-09-04T05:49:37.314Z,90.7
2017-09-04T05:50:36.501Z,90.7
2017-09-04T05:51:36.068Z,90.6
2017-09-04T05:52:34.863Z,90.5
2017-09-04T05:53:33.920Z,90.3
2017-09-04T05:54:33.222Z,90.4
2017-09-04T05:55:32.402Z,90.4
2017-09-04T05:56:31.845Z,90.2
2017-09-04T05:57:30.818Z,89.9
2017-09-04T05:58:30.098Z,89.8
2017-09-04T05:59:28.798Z,89.8
2017-09-04T06:00:28.361Z,89.6
2017-09-04T06:01:27.537Z,89.6
2017-09-04T06:02:26.477Z,89.6
2017-09-04T06:03:25.785Z,89.6
2017-09-04T06:05:23.863Z,89.3
2017-09-04T06:06:23.295Z,88.8
2017-09-04T06:07:22.352Z,88.7
2017-09-04T06:08:21.658Z,88.8
2017-09-04T06:09:20.710Z,88
2017-09-04T06:10:19.763Z,88
2017-09-04T06:11:19.074Z,88.2
2017-09-04T06:12:18.390Z,88.7
2017-09-04T06:13:17.075Z,88.5
2017-09-04T06:14:16.397Z,88.7
2017-09-04T06:15:15.832Z,88.3
2017-09-04T06:16:14.761Z,87.8
2017-09-04T06:17:14.192Z,87.7
2017-09-04T06:18:13.008Z,87.4
2017-09-04T06:19:12.439Z,87.3
2017-09-04T06:20:11.628Z,87.6
2017-09-04T06:21:10.431Z,87
2017-09-04T06:22:09.624Z,87.1
2017-09-04T06:23:08.806Z,87.2
2017-09-04T06:24:08.112Z,87.1
2017-09-04T06:25:07.426Z,87.1
2017-09-04T06:25:37.558Z,87.1
2017-09-04T06:26:07.787Z,87.1
2017-09-04T06:27:05.709Z,86.8
2017-09-04T06:28:04.889Z,86.9
2017-09-04T06:29:04.330Z,86.6
2017-09-04T06:30:03.013Z,86.1
2017-09-04T06:31:02.183Z,86.1
2017-09-04T06:32:01.375Z,85.5
2017-09-04T06:33:00.556Z,85.7
2017-09-04T06:33:59.742Z,85.4
2017-09-04T06:34:59.178Z,85.4
2017-09-04T06:35:57.989Z,85.2
2017-09-04T06:36:57.170Z,85.1
2017-09-04T06:37:56.600Z,84.7
2017-09-04T06:38:55.780Z,84.6
2017-09-04T06:39:54.842Z,84.7
2017-09-04T06:40:54.021Z,84.5
2017-09-04T06:41:53.204Z,83.4
2017-09-04T06:42:52.269Z,83.7
2017-09-04T06:43:51.445Z,83.8
2017-09-04T06:44:22.074Z,83.8
2017-09-04T06:45:50.084Z,84.2
2017-09-04T06:46:49.013Z,83.6
2017-09-04T06:47:48.194Z,83.1
2017-09-04T06:48:47.613Z,83.2
2017-09-04T06:49:46.407Z,83.3
2017-09-04T06:50:45.832Z,83.6
2017-09-04T06:51:45.138Z,83
2017-09-04T06:52:44.077Z,82.6
2017-09-04T06:53:43.391Z,82.7
2017-09-04T06:54:42.324Z,82.7
2017-09-04T06:55:41.757Z,82.8
2017-09-04T06:56:41.179Z,82.5
2017-09-04T06:57:40.236Z,82.1
2017-09-04T06:58:39.425Z,81.9
2017-09-04T06:59:38.383Z,81.4
2017-09-04T07:00:37.685Z,81.4
2017-09-04T07:01:37.004Z,81.4
2017-09-04T07:02:36.068Z,81.1
2017-09-04T07:03:35.251Z,81.2
2017-09-04T07:04:34.446Z,81.4
2017-09-04T07:05:33.263Z,81.3
2017-09-04T07:06:32.444Z,81.1
2017-09-04T07:07:32.258Z,81
2017-09-04T07:08:31.057Z,81
2017-09-04T07:10:29.385Z,79.7
2017-09-04T07:11:28.694Z,80
2017-09-04T07:12:28.127Z,80
2017-09-04T07:13:26.938Z,78.9
2017-09-04T07:14:26.508Z,79.1
2017-09-04T07:15:25.305Z,79
2017-09-04T07:16:24.484Z,78.3
2017-09-04T07:17:23.547Z,78.1
2017-09-04T07:18:22.849Z,78.4
2017-09-04T07:19:22.277Z,78.7
2017-09-04T07:19:52.520Z,78.7
2017-09-04T07:20:22.768Z,79
2017-09-04T07:21:20.438Z,77.5
2017-09-04T07:22:19.868Z,77.9
2017-09-04T07:23:19.052Z,78.1
2017-09-04T07:24:18.359Z,77.4
2017-09-04T07:25:17.176Z,77.3
2017-09-04T07:26:16.735Z,78
2017-09-04T07:27:15.666Z,78.3
2017-09-04T07:28:15.104Z,77.5
2017-09-04T07:29:14.286Z,78
2017-09-04T07:30:13.344Z,78
2017-09-04T07:31:12.643Z,76.6
2017-09-04T07:32:11.697Z,77
2017-09-04T07:33:11.138Z,77.1
2017-09-04T07:34:10.075Z,77
2017-09-04T07:35:09.276Z,77.1
2017-09-04T07:36:08.713Z,77
2017-09-04T07:37:07.667Z,76.8
2017-09-04T07:38:06.974Z,77.3
2017-09-04T07:39:06.162Z,77.6
2017-09-04T07:40:05.601Z,77.4
2017-09-04T07:41:04.532Z,76.2
2017-09-04T07:42:03.586Z,75.6
2017-09-04T07:43:02.645Z,74.5
2017-09-04T07:44:02.331Z,74.4
2017-09-04T07:45:01.250Z,75.4
2017-09-04T07:46:00.692Z,75.9
2017-09-04T07:46:59.745Z,75.5
2017-09-04T07:47:59.063Z,76.4
2017-09-04T07:48:58.250Z,75.9
2017-09-04T07:49:57.444Z,75.3
2017-09-04T07:50:56.616Z,74.7
2017-09-04T07:52:54.938Z,75.7
2017-09-04T07:53:54.359Z,74.7
2017-09-04T07:54:53.164Z,74.8
2017-09-04T07:55:52.646Z,74.7
2017-09-04T07:56:51.953Z,74.2
2017-09-04T07:57:50.759Z,74.3
2017-09-04T07:58:50.194Z,74.2
2017-09-04T07:59:49.637Z,73.5
2017-09-04T08:00:48.705Z,73.6
2017-09-04T08:02:47.276Z,74.3
2017-09-04T08:03:46.339Z,73.4
2017-09-04T08:04:45.405Z,73.5
2017-09-04T08:05:44.722Z,72.6
2017-09-04T08:06:44.152Z,73
2017-09-04T08:07:43.329Z,73.3
2017-09-04T08:08:42.392Z,73.8
2017-09-04T08:09:41.711Z,74.2
2017-09-04T08:10:40.795Z,73.6
2017-09-04T08:11:39.846Z,72.5
2017-09-04T08:12:39.154Z,72.5
2017-09-04T08:13:38.464Z,72.5
2017-09-04T08:14:37.649Z,73.3
2017-09-04T08:15:36.838Z,73.6
2017-09-04T08:16:36.269Z,73.1
2017-09-04T08:17:35.587Z,72.1
2017-09-04T08:18:34.519Z,71.8
2017-09-04T08:19:33.565Z,71.3
2017-09-04T08:20:33.254Z,70.8
2017-09-04T08:21:32.434Z,70.9
2017-09-04T08:22:31.368Z,70.8
2017-09-04T08:23:30.678Z,71.7
2017-09-04T08:24:29.859Z,71.6
2017-09-04T08:25:29.045Z,71.4
2017-09-04T08:26:28.359Z,71.3
2017-09-04T08:27:27.804Z,71.4
2017-09-04T08:28:26.983Z,71.3
2017-09-04T08:29:26.166Z,70.9
2017-09-04T08:30:25.098Z,70.7
2017-09-04T08:31:24.789Z,71.7
2017-09-04T08:32:23.593Z,71.3
2017-09-04T08:33:22.902Z,70.7
2017-09-04T08:34:22.083Z,70.5
2017-09-04T08:35:21.396Z,70.8
2017-09-04T08:36:20.964Z,70.1
2017-09-04T08:37:19.648Z,69.6
2017-09-04T08:38:19.457Z,69.5
2017-09-04T08:39:18.276Z,69.7
2017-09-04T08:40:17.588Z,69.9
2017-09-04T08:41:16.771Z,69.9
2017-09-04T08:42:16.204Z,69.8
2017-09-04T08:43:15.521Z,70.3
2017-09-04T08:44:14.826Z,70.7
2017-09-04T08:45:14.135Z,70.4
2017-09-04T08:46:13.081Z,70.4
2017-09-04T08:47:12.011Z,69.7
2017-09-04T08:48:11.697Z,68.7
2017-09-04T08:49:11.002Z,69
2017-09-04T08:50:10.192Z,69.4
2017-09-04T08:51:09.000Z,69.9
2017-09-04T08:52:08.443Z,69.8
2017-09-04T08:53:07.629Z,68.8
2017-09-04T08:54:07.062Z,68.1
2017-09-04T08:55:06.114Z,68.9
2017-09-04T08:56:05.424Z,68.2
2017-09-04T08:57:04.861Z,67.9
2017-09-04T08:58:04.295Z,68.4
2017-09-04T08:59:03.222Z,68.3
2017-09-04T09:00:02.412Z,66.1
2017-09-04T09:01:01.996Z,65.7
2017-09-04T09:02:00.804Z,66.1
2017-09-04T09:03:00.378Z,67
2017-09-04T09:03:59.681Z,66.2
2017-09-04T09:04:58.999Z,65.8
2017-09-04T09:05:58.071Z,66.1
2017-09-04T09:06:57.146Z,66
2017-09-04T09:09:54.744Z,65.2
2017-09-04T09:10:54.310Z,64.4
2017-09-04T09:11:53.622Z,65
2017-09-04T09:12:53.056Z,64.7
2017-09-04T09:13:51.873Z,65.4
2017-09-04T09:14:51.317Z,64.9
2017-09-04T09:15:50.374Z,65.3
2017-09-04T09:16:49.943Z,64.7
2017-09-04T09:17:48.879Z,64.6
2017-09-04T09:18:48.563Z,63.7
2017-09-04T09:19:47.868Z,64.4
2017-09-04T09:20:46.790Z,64.6
2017-09-04T09:21:46.347Z,64.7
2017-09-04T09:22:45.267Z,64.5
2017-09-04T09:23:44.586Z,64.7
2017-09-04T09:24:44.027Z,64.8
2017-09-04T09:25:43.336Z,64.3
2017-09-04T09:26:42.514Z,64.1
2017-09-04T09:27:41.827Z,63.2
2017-09-04T09:28:41.018Z,64
2017-09-04T09:29:40.319Z,62.5
2017-09-04T09:30:39.289Z,61.4
2017-09-04T09:31:38.943Z,61.7
2017-09-04T09:32:37.739Z,59.5
2017-09-04T09:33:37.164Z,60.8
2017-09-04T09:34:36.589Z,60
2017-09-04T09:35:35.900Z,59.4
2017-09-04T09:36:35.205Z,59.4
2017-09-04T09:37:34.526Z,59.6
2017-09-04T09:38:33.840Z,59.8
2017-09-04T09:39:32.776Z,59.9
2017-09-04T09:40:32.357Z,60.3
2017-09-04T09:41:31.797Z,60.3
2017-09-04T09:42:30.982Z,60.2
2017-09-04T09:43:30.043Z,60
2017-09-04T09:44:29.622Z,59.9
2017-09-04T09:45:28.696Z,60.6
2017-09-04T09:46:28.137Z,59
2017-09-04T09:47:27.078Z,59
2017-09-04T09:48:26.648Z,59.3
2017-09-04T09:49:25.446Z,58
2017-09-04T09:50:25.000Z,58
2017-09-04T09:51:24.428Z,59
2017-09-04T09:52:23.739Z,57.5
2017-09-04T09:53:22.805Z,57.8
2017-09-04T09:54:22.238Z,58.4
2017-09-04T09:55:21.553Z,58.6
2017-09-04T09:56:20.858Z,56.9
2017-09-04T09:57:20.285Z,56.6
2017-09-04T09:58:19.600Z,57.3
2017-09-04T09:59:18.783Z,58.1
2017-09-04T10:00:17.731Z,58.3
2017-09-04T10:01:17.028Z,58.1
2017-09-04T10:02:16.599Z,58.3
2017-09-04T10:03:15.780Z,59
2017-09-04T10:04:14.834Z,56.5
2017-09-04T10:05:14.861Z,56.7
2017-09-04T10:06:13.682Z,56.2
2017-09-04T10:07:12.987Z,56.5
2017-09-04T10:08:12.175Z,56.8
2017-09-04T10:09:11.611Z,57.1
2017-09-04T10:10:10.913Z,56.6
2017-09-04T10:11:10.351Z,56.2
2017-09-04T10:12:09.285Z,54.3
2017-09-04T10:13:08.836Z,54.8
2017-09-04T10:14:07.755Z,54.5
2017-09-04T10:15:07.570Z,55
2017-09-04T10:16:06.483Z,55.2
2017-09-04T10:17:05.919Z,55.8
2017-09-04T10:18:05.487Z,55.2
2017-09-04T10:19:04.544Z,56.4
2017-09-04T10:20:03.983Z,56.6
2017-09-04T10:21:03.418Z,56.8
2017-09-04T10:22:02.344Z,55.9
2017-09-04T10:23:02.034Z,55.4
2017-09-04T10:24:00.966Z,55.5
2017-09-04T10:25:00.276Z,55
2017-09-04T10:25:59.840Z,55.2
2017-09-04T10:26:59.276Z,53.1
2017-09-04T10:27:58.201Z,53.7
2017-09-04T10:28:57.508Z,52.1
2017-09-04T10:29:57.099Z,53
2017-09-04T10:30:56.539Z,53.2
2017-09-04T10:32:55.106Z,53.2
2017-09-04T10:33:54.151Z,53.6
2017-09-04T10:34:53.590Z,53.3
2017-09-04T10:35:52.524Z,53.6
2017-09-04T10:36:52.200Z,53.8
2017-09-04T10:37:51.384Z,54.1
2017-09-04T10:38:50.820Z,54.4
2017-09-04T10:39:49.739Z,55.3
2017-09-04T10:40:49.549Z,55.2
2017-09-04T10:41:48.860Z,55.4
2017-09-04T10:42:48.177Z,55.6
2017-09-04T10:43:47.605Z,55.4
2017-09-04T10:44:46.772Z,54.7
2017-09-04T10:45:45.958Z,54.9
2017-09-04T10:46:45.264Z,56.4
2017-09-04T10:47:44.571Z,54
2017-09-04T10:49:43.525Z,53.1
2017-09-04T10:50:42.338Z,53.2
2017-09-04T10:51:41.649Z,53.6
2017-09-04T10:52:40.955Z,52.8
2017-09-04T10:53:40.397Z,53
2017-09-04T10:54:39.840Z,53.1
2017-09-04T10:55:39.287Z,53
2017-09-04T10:56:38.457Z,52.9
2017-09-04T10:57:37.890Z,53
2017-09-04T10:58:36.817Z,53.9
2017-09-04T10:59:36.383Z,53.7
2017-09-04T11:00:35.436Z,53.6
2017-09-04T11:01:34.998Z,54.2
2017-09-04T11:02:34.182Z,54.4
2017-09-04T11:03:33.740Z,54
2017-09-04T11:04:32.799Z,53.6
2017-09-04T11:05:32.248Z,53.5
2017-09-04T11:07:30.813Z,54.6
2017-09-04T11:08:30.115Z,54.4
2017-09-04T11:09:29.314Z,54.9
2017-09-04T11:10:28.892Z,54.4
2017-09-04T11:11:28.480Z,53.1
2017-09-04T11:12:27.768Z,50.9
2017-09-04T11:13:26.961Z,50.8
2017-09-04T11:14:26.153Z,50.8
2017-09-04T11:15:25.714Z,51.1
2017-09-04T11:16:25.017Z,51.2
2017-09-04T11:17:24.196Z,51.2
2017-09-04T11:17:54.945Z,51.2
2017-09-04T11:18:25.321Z,52.4
2017-09-04T11:18:55.679Z,52.4
2017-09-04T11:19:26.177Z,51.9
2017-09-04T11:20:22.088Z,51.3
2017-09-04T11:21:21.640Z,52.2
2017-09-04T11:22:20.938Z,54.5
2017-09-04T11:23:19.866Z,52.3
2017-09-04T11:24:19.423Z,52.5
2017-09-04T11:25:18.875Z,53.6
2017-09-04T11:26:18.048Z,53
2017-09-04T11:27:17.354Z,52.7
2017-09-04T11:28:16.537Z,52.8
2017-09-04T11:29:15.966Z,53.5
2017-09-04T11:30:15.272Z,54.2
2017-09-04T11:31:14.445Z,54.5
2017-09-04T11:32:14.001Z,53
2017-09-04T11:33:13.306Z,52.2
2017-09-04T11:34:12.742Z,53.1
2017-09-04T11:35:12.177Z,54
2017-09-04T11:36:11.226Z,52.2
2017-09-04T11:37:10.543Z,52.5
2017-09-04T11:38:09.977Z,51.3
2017-09-04T11:39:09.421Z,51.1
2017-09-04T11:40:08.850Z,51.7
2017-09-04T11:41:08.279Z,52
2017-09-04T11:42:07.074Z,51.6
2017-09-04T11:43:06.504Z,51.8
2017-09-04T11:44:06.182Z,51.5
2017-09-04T11:45:05.622Z,51.5
2017-09-04T11:46:04.797Z,50.9
2017-09-04T11:47:04.222Z,50.2
2017-09-04T11:48:03.656Z,49.1
2017-09-04T11:49:02.586Z,49.8
2017-09-04T11:50:01.771Z,50.1
2017-09-04T11:51:01.475Z,48.4
2017-09-04T11:52:00.672Z,49.1
2017-09-04T11:53:00.364Z,49.1
2017-09-04T11:53:59.667Z,48.7
2017-09-04T11:54:59.096Z,48.5
2017-09-04T11:55:58.159Z,49
2017-09-04T11:56:57.462Z,48.3
2017-09-04T11:57:56.890Z,48.5
2017-09-04T11:58:55.945Z,49.2
2017-09-04T11:59:55.624Z,48.5
2017-09-04T12:00:54.929Z,48.7
2017-09-04T12:01:54.368Z,48.8
2017-09-04T12:02:53.426Z,48.5
2017-09-04T12:03:52.865Z,48.4
2017-09-04T12:04:52.285Z,48.8
2017-09-04T12:06:51.125Z,48.4
2017-09-04T12:07:50.077Z,48.5
2017-09-04T12:08:49.627Z,49.3
2017-09-04T12:09:48.934Z,48.8
2017-09-04T12:10:48.364Z,48.8
2017-09-04T12:11:47.553Z,49.9
2017-09-04T12:12:18.312Z,49.9
2017-09-04T12:12:48.819Z,50
2017-09-04T12:13:46.615Z,49.6
2017-09-04T12:14:45.799Z,49.2
2017-09-04T12:15:45.347Z,48.8
2017-09-04T12:16:44.657Z,49.3
2017-09-04T12:17:43.720Z,50.1
2017-09-04T12:18:43.151Z,49.3
2017-09-04T12:19:42.456Z,50
2017-09-04T12:20:41.630Z,51.1
2017-09-04T12:21:41.074Z,49.3
2017-09-04T12:22:40.625Z,50.1
2017-09-04T12:23:39.790Z,50.6
2017-09-04T12:24:39.097Z,49.3
2017-09-04T12:25:38.398Z,49.2
2017-09-04T12:26:38.087Z,50
2017-09-04T12:27:37.266Z,50.3
2017-09-04T12:28:36.440Z,50.1
2017-09-04T12:29:36.123Z,50.2
2017-09-04T12:30:35.441Z,50.6
2017-09-04T12:31:34.755Z,49.5
2017-09-04T12:32:34.307Z,49.6
2017-09-04T12:33:33.242Z,49.7
2017-09-04T12:34:32.542Z,50.7
2017-09-04T12:35:31.974Z,49.3
2017-09-04T12:36:31.284Z,50
2017-09-04T12:37:30.467Z,49
2017-09-04T12:38:30.070Z,49.1
2017-09-04T12:39:29.756Z,49.7
2017-09-04T12:40:28.946Z,48.8
2017-09-04T12:41:28.388Z,49.3
2017-09-04T12:43:26.833Z,49.1
2017-09-04T12:44:26.274Z,49
2017-09-04T12:45:25.840Z,48.6
2017-09-04T12:46:24.641Z,48.9
2017-09-04T12:47:24.070Z,48.7
2017-09-04T12:48:23.755Z,48.5
2017-09-04T12:49:23.192Z,48.4
2017-09-04T12:50:22.008Z,49
2017-09-04T12:51:21.448Z,48.2
2017-09-04T12:52:20.875Z,48.7
2017-09-04T12:53:20.322Z,48.3
2017-09-04T12:54:19.509Z,48.7
2017-09-04T12:55:19.322Z,48.7
2017-09-04T12:56:18.633Z,48.5
2017-09-04T12:57:17.724Z,47.6
2017-09-04T12:58:17.150Z,47.4
2017-09-04T12:59:16.466Z,45.9
2017-09-04T13:00:15.903Z,46.2
2017-09-04T13:01:14.835Z,46.2
2017-09-04T13:02:14.516Z,45.5
2017-09-04T13:03:14.083Z,45.5
2017-09-04T13:04:12.890Z,45.4
2017-09-04T13:05:12.447Z,45.4
2017-09-04T13:06:11.628Z,45.7
2017-09-04T13:07:11.456Z,45.3
2017-09-04T13:08:10.750Z,45.4
2017-09-04T13:08:41.372Z,45.4
2017-09-04T13:09:11.740Z,46.7
2017-09-04T13:10:09.050Z,45.7
2017-09-04T13:11:08.735Z,46.1
2017-09-04T13:12:08.047Z,46.8
2017-09-04T13:13:07.615Z,45.4
2017-09-04T13:14:06.911Z,46.3
2017-09-04T13:15:06.105Z,45.9
2017-09-04T13:16:05.657Z,46.3
2017-09-04T13:17:04.705Z,46.2
2017-09-04T13:18:04.392Z,45.4
2017-09-04T13:19:03.569Z,45.3
2017-09-04T13:20:03.136Z,45.8
2017-09-04T13:21:02.312Z,46.4
2017-09-04T13:22:01.742Z,44.7
2017-09-04T13:23:01.071Z,45.8
2017-09-04T13:24:00.508Z,44.3
2017-09-04T13:24:59.937Z,43.1
2017-09-04T13:25:59.238Z,44.4
2017-09-04T13:26:58.677Z,43.2
2017-09-04T13:27:58.113Z,45.2
2017-09-04T13:28:57.175Z,42.9
2017-09-04T13:29:56.866Z,43.6
2017-09-04T13:30:56.175Z,43.3
2017-09-04T13:31:55.476Z,43.6
2017-09-04T13:33:54.046Z,43.2
2017-09-04T13:34:53.853Z,42.9
2017-09-04T13:35:52.908Z,42.8
2017-09-04T13:36:52.216Z,42.3
2017-09-04T13:37:51.908Z,41.5
2017-09-04T13:38:50.969Z,40.3
2017-09-04T13:39:50.655Z,41.4
2017-09-04T13:40:49.836Z,40.7
2017-09-04T13:41:49.018Z,40.9
2017-09-04T13:42:48.706Z,40.8
2017-09-04T13:43:47.884Z,41.5
2017-09-04T13:44:47.326Z,41.5
2017-09-04T13:45:46.766Z,39.2
2017-09-04T13:46:45.938Z,40.2
2017-09-04T13:47:45.384Z,42.4
2017-09-04T13:48:45.077Z,40.5
2017-09-04T13:49:44.513Z,40.8
2017-09-04T13:50:43.576Z,42.4
2017-09-04T13:51:43.263Z,38.6
2017-09-04T13:52:42.852Z,39.7
2017-09-04T13:53:41.794Z,39.5
2017-09-04T13:54:41.478Z,38.7
2017-09-04T13:55:40.654Z,41
2017-09-04T13:56:40.081Z,39.4